createdAt,value
2022-11-10T00:01:38.818Z,1.80
2022-11-10T00:04:43.342Z,1.60
2022-11-10T00:07:47.795Z,1.40
2022-11-10T00:10:58.159Z,1.48
2022-11-10T00:14:20.749Z,1.60
2022-11-10T00:17:24.914Z,1.80
2022-11-10T00:20:29.241Z,1.50
2022-11-10T00:23:34.123Z,1.20
2022-11-10T00:26:38.388Z,1.42
2022-11-10T00:29:42.831Z,1.17
2022-11-10T00:32:48.354Z,1.50
2022-11-10T00:35:52.697Z,1.50
2022-11-10T00:38:56.919Z,1.50
2022-11-10T00:42:01.634Z,1.50
2022-11-10T00:45:06.772Z,1.40
2022-11-10T00:48:10.978Z,1.33
2022-11-10T00:51:41.412Z,1.63
2022-11-10T00:54:45.635Z,1.52
2022-11-10T00:57:49.872Z,1.90
2022-11-10T01:01:02.300Z,1.40
2022-11-10T01:04:07.274Z,1.88
2022-11-10T01:07:11.873Z,1.92
2022-11-10T01:10:16.307Z,1.95
2022-11-10T01:13:21.169Z,1.80
2022-11-10T01:16:30.358Z,1.77
2022-11-10T01:19:34.927Z,1.88
2022-11-10T01:22:40.627Z,1.90
2022-11-10T01:25:45.521Z,2.10
2022-11-10T01:28:49.608Z,2.08
2022-11-10T01:31:53.990Z,2.47
2022-11-10T01:34:58.110Z,2.20
2022-11-10T01:38:02.431Z,2.22
2022-11-10T01:41:08.945Z,2.08
2022-11-10T01:44:24.711Z,2.10
2022-11-10T01:47:29.136Z,2.00
2022-11-10T01:50:37.733Z,1.50
2022-11-10T01:53:46.667Z,1.77
2022-11-10T01:56:53.428Z,2.22
2022-11-10T01:59:57.608Z,2.70
2022-11-10T02:03:10.390Z,1.90
2022-11-10T02:06:16.435Z,2.15
2022-11-10T02:09:20.774Z,1.98
2022-11-10T02:12:37.163Z,2.00
2022-11-10T02:15:42.392Z,2.10
2022-11-10T02:18:46.761Z,2.00
2022-11-10T02:21:51.479Z,2.30
2022-11-10T02:24:55.509Z,2.10
2022-11-10T02:27:59.800Z,2.55
2022-11-10T02:31:05.917Z,2.10
2022-11-10T02:34:10.572Z,2.25
2022-11-10T02:37:14.852Z,2.60
2022-11-10T02:40:18.776Z,2.30
2022-11-10T02:43:23.701Z,2.30
2022-11-10T02:46:28.195Z,1.73
2022-11-10T02:49:32.560Z,2.17
2022-11-10T02:52:36.811Z,2.30
2022-11-10T02:55:41.984Z,1.80
2022-11-10T02:58:45.960Z,2.13
2022-11-10T03:01:50.259Z,2.60
2022-11-10T03:04:54.817Z,2.53
2022-11-10T03:08:01.294Z,2.30
2022-11-10T03:11:05.885Z,2.08
2022-11-10T03:14:10.163Z,2.28
2022-11-10T03:17:14.368Z,2.40
2022-11-10T03:20:19.554Z,2.58
2022-11-10T03:23:24.495Z,2.08
2022-11-10T03:26:29.578Z,2.08
2022-11-10T03:29:34.077Z,2.50
2022-11-10T03:32:38.426Z,2.20
2022-11-10T03:35:43.285Z,2.20
2022-11-10T03:38:47.558Z,2.35
2022-11-10T03:41:51.892Z,2.45
2022-11-10T03:44:56.352Z,2.03
2022-11-10T03:48:00.754Z,2.03
2022-11-10T03:51:05.474Z,1.70
2022-11-10T03:54:09.629Z,2.03
2022-11-10T03:57:14.468Z,2.45
2022-11-10T04:00:19.179Z,2.60
2022-11-10T04:03:24.719Z,2.33
2022-11-10T04:06:47.972Z,2.25
2022-11-10T04:09:52.221Z,1.80
2022-11-10T04:13:14.948Z,1.88
2022-11-10T04:16:19.807Z,1.77
2022-11-10T04:19:25.711Z,1.70
2022-11-10T04:22:48.675Z,1.63
2022-11-10T04:26:18.856Z,2.00
2022-11-10T04:29:23.314Z,1.90
2022-11-10T04:32:28.083Z,1.80
2022-11-10T04:35:32.557Z,2.25
2022-11-10T04:38:37.200Z,1.95
2022-11-10T04:41:41.438Z,2.10
2022-11-10T04:44:45.951Z,2.10
2022-11-10T04:47:50.214Z,2.30
2022-11-10T04:50:55.040Z,2.33
2022-11-10T04:53:59.978Z,2.00
2022-11-10T04:57:04.351Z,1.95
2022-11-10T05:00:10.602Z,1.80
2022-11-10T05:03:14.683Z,1.70
2022-11-10T05:06:19.286Z,2.15
2022-11-10T05:09:23.575Z,2.35
2022-11-10T05:12:27.899Z,1.50
2022-11-10T05:15:33.039Z,1.73
2022-11-10T05:18:37.351Z,2.20
2022-11-10T05:21:41.753Z,1.98
2022-11-10T05:24:46.251Z,1.73
2022-11-10T05:27:50.540Z,2.20
2022-11-10T05:30:54.797Z,1.70
2022-11-10T05:33:58.990Z,1.45
2022-11-10T05:37:03.335Z,2.08
2022-11-10T05:40:08.388Z,1.65
2022-11-10T05:43:12.832Z,2.15
2022-11-10T05:46:17.398Z,1.98
2022-11-10T05:49:21.971Z,1.58
2022-11-10T05:52:26.120Z,2.10
2022-11-10T05:55:31.122Z,1.80
2022-11-10T05:58:35.656Z,2.35
2022-11-10T06:01:39.636Z,1.55
2022-11-10T06:04:43.895Z,1.98
2022-11-10T06:07:48.293Z,2.10
2022-11-10T06:10:53.619Z,2.20
2022-11-10T06:13:57.737Z,2.20
2022-11-10T06:17:02.002Z,2.10
2022-11-10T06:20:06.730Z,2.47
2022-11-10T06:23:13.056Z,2.60
2022-11-10T06:26:17.375Z,2.50
2022-11-10T06:29:26.634Z,2.00
2022-11-10T06:32:32.865Z,1.98
2022-11-10T06:35:36.846Z,2.35
2022-11-10T06:38:41.376Z,1.92
2022-11-10T06:41:45.373Z,2.95
2022-11-10T06:44:49.632Z,2.60
2022-11-10T06:48:11.619Z,3.08
2022-11-10T06:51:16.030Z,2.75
2022-11-10T06:54:20.412Z,3.25
2022-11-10T06:57:24.886Z,2.65
2022-11-10T07:00:29.479Z,3.15
2022-11-10T07:03:33.524Z,2.95
2022-11-10T07:06:38.103Z,2.60
2022-11-10T07:09:42.612Z,3.13
2022-11-10T07:12:46.863Z,3.40
2022-11-10T07:15:51.616Z,3.13
2022-11-10T07:18:55.774Z,3.20
2022-11-10T07:22:00.427Z,3.17
2022-11-10T07:25:05.216Z,3.03
2022-11-10T07:28:10.703Z,2.92
2022-11-10T07:31:15.079Z,3.20
2022-11-10T07:34:19.803Z,3.05
2022-11-10T07:37:24.257Z,2.88
2022-11-10T07:40:29.101Z,3.00
2022-11-10T07:43:33.862Z,3.25
2022-11-10T07:46:37.943Z,2.80
2022-11-10T07:49:42.309Z,2.53
2022-11-10T07:52:46.619Z,2.47
2022-11-10T07:55:51.467Z,2.20
2022-11-10T07:58:55.878Z,2.38
2022-11-10T08:02:00.452Z,2.42
2022-11-10T08:05:04.845Z,1.98
2022-11-10T08:08:09.731Z,2.67
2022-11-10T08:11:14.041Z,2.47
2022-11-10T08:14:18.489Z,2.50
2022-11-10T08:17:22.917Z,2.40
2022-11-10T08:20:27.435Z,2.25
2022-11-10T08:23:31.625Z,2.20
2022-11-10T08:26:36.117Z,2.13
2022-11-10T08:29:40.601Z,3.30
2022-11-10T08:32:45.178Z,2.58
2022-11-10T08:35:51.792Z,2.65
2022-11-10T08:38:55.783Z,2.17
2022-11-10T08:42:00.374Z,2.30
2022-11-10T08:45:05.110Z,2.78
2022-11-10T08:48:17.778Z,2.33
2022-11-10T08:54:27.003Z,2.22
2022-11-10T08:57:31.424Z,2.65
2022-11-10T09:00:35.780Z,1.85
2022-11-10T09:03:40.126Z,2.22
2022-11-10T09:06:44.761Z,2.40
2022-11-10T09:10:05.966Z,2.75
2022-11-10T09:13:13.120Z,2.38
2022-11-10T09:16:17.488Z,2.40
2022-11-10T09:19:21.772Z,2.05
2022-11-10T09:22:25.850Z,1.83
2022-11-10T09:25:30.102Z,1.88
2022-11-10T09:28:34.366Z,2.15
2022-11-10T09:31:38.909Z,2.03
2022-11-10T09:34:44.775Z,2.85
2022-11-10T09:37:50.077Z,2.00
2022-11-10T09:41:02.685Z,1.90
2022-11-10T09:44:29.224Z,1.90
2022-11-10T09:47:57.156Z,2.17
2022-11-10T09:51:06.902Z,2.00
2022-11-10T09:54:39.161Z,2.53
2022-11-10T09:57:48.665Z,2.22
2022-11-10T10:01:04.206Z,1.80
2022-11-10T10:04:16.633Z,2.20
2022-11-10T10:07:34.791Z,2.20
2022-11-10T10:10:44.883Z,2.53
2022-11-10T10:14:30.503Z,3.13
2022-11-10T10:17:48.908Z,2.28
2022-11-10T10:21:31.755Z,2.30
2022-11-10T10:24:38.151Z,2.33
2022-11-10T10:27:46.821Z,2.05
2022-11-10T10:30:51.070Z,2.03
2022-11-10T10:33:55.519Z,2.45
2022-11-10T10:37:00.154Z,2.83
2022-11-10T10:40:04.661Z,2.63
2022-11-10T10:43:08.849Z,2.17
2022-11-10T10:46:15.808Z,1.90
2022-11-10T10:49:28.564Z,1.92
2022-11-10T10:52:33.516Z,2.15
2022-11-10T10:55:38.220Z,1.70
2022-11-10T10:58:51.692Z,2.22
2022-11-10T11:01:56.389Z,2.25
2022-11-10T11:05:14.636Z,2.50
2022-11-10T11:08:20.218Z,2.50
2022-11-10T11:11:36.794Z,2.03
2022-11-10T11:14:45.872Z,2.05
2022-11-10T11:18:17.917Z,1.88
2022-11-10T11:21:33.595Z,2.03
2022-11-10T11:24:37.343Z,3.00
2022-11-10T11:27:58.664Z,1.73
2022-11-10T11:31:26.217Z,1.75
2022-11-10T11:35:06.568Z,2.35
2022-11-10T11:38:32.200Z,1.92
2022-11-10T11:41:55.433Z,2.15
2022-11-10T11:45:27.487Z,2.17
2022-11-10T11:48:46.455Z,2.33
2022-11-10T11:52:07.502Z,2.25
2022-11-10T11:55:31.856Z,2.40
2022-11-10T11:58:58.138Z,1.90
2022-11-10T12:02:40.348Z,2.20
2022-11-10T12:05:50.813Z,2.05
2022-11-10T12:09:00.840Z,1.65
2022-11-10T12:12:30.602Z,2.03
2022-11-10T12:15:58.761Z,1.98
2022-11-10T12:19:27.082Z,1.92
2022-11-10T12:22:54.371Z,2.03
2022-11-10T12:26:13.375Z,2.30
2022-11-10T12:29:39.425Z,1.60
2022-11-10T12:33:00.348Z,2.17
2022-11-10T12:36:11.560Z,1.95
2022-11-10T12:39:23.605Z,2.08
2022-11-10T12:42:30.948Z,1.98
2022-11-10T12:45:46.457Z,1.95
2022-11-10T12:49:12.779Z,1.60
2022-11-10T12:52:23.043Z,2.20
2022-11-10T12:55:42.871Z,1.90
2022-11-10T12:58:46.988Z,1.95
2022-11-10T13:01:58.212Z,1.90
2022-11-10T13:05:14.530Z,1.33
2022-11-10T13:08:33.154Z,1.60
2022-11-10T13:11:37.497Z,1.30
2022-11-10T13:14:41.510Z,1.55
2022-11-10T13:17:48.870Z,2.00
2022-11-10T13:20:54.675Z,2.00
2022-11-10T13:24:02.574Z,1.42
2022-11-10T13:27:46.514Z,1.42
2022-11-10T13:30:50.531Z,1.75
2022-11-10T13:34:22.729Z,1.60
2022-11-10T13:37:29.716Z,1.80
2022-11-10T13:40:36.265Z,2.08
2022-11-10T13:43:51.975Z,1.45
2022-11-10T13:47:09.681Z,1.90
2022-11-10T13:50:35.553Z,1.63
2022-11-10T13:54:16.316Z,1.48
2022-11-10T13:57:35.661Z,1.30
2022-11-10T14:00:40.213Z,1.30
2022-11-10T14:03:47.962Z,1.90
2022-11-10T14:06:57.003Z,1.45
2022-11-10T14:10:07.363Z,1.45
2022-11-10T14:13:33.731Z,1.50
2022-11-10T14:16:41.606Z,1.55
2022-11-10T14:19:46.160Z,1.80
2022-11-10T14:22:52.277Z,1.35
2022-11-10T14:26:03.397Z,2.10
2022-11-10T14:29:40.544Z,1.40
2022-11-10T14:32:45.112Z,1.40
2022-11-10T14:35:59.696Z,1.30
2022-11-10T14:39:06.672Z,1.10
2022-11-10T14:42:18.696Z,1.48
2022-11-10T14:45:26.088Z,1.23
2022-11-10T14:48:33.366Z,1.38
2022-11-10T14:51:37.422Z,1.40
2022-11-10T14:54:45.850Z,1.20
2022-11-10T14:57:53.428Z,1.50
2022-11-10T15:00:57.738Z,1.50
2022-11-10T15:04:03.635Z,1.50
2022-11-10T15:07:08.133Z,1.42
2022-11-10T15:10:19.615Z,1.63
2022-11-10T15:13:33.382Z,1.58
2022-11-10T15:16:38.519Z,1.70
2022-11-10T15:19:45.520Z,1.33
2022-11-10T15:22:50.190Z,1.55
2022-11-10T15:25:54.320Z,1.90
2022-11-10T15:28:58.920Z,1.67
2022-11-10T15:32:03.152Z,1.80
2022-11-10T15:35:29.840Z,1.40
2022-11-10T15:38:33.976Z,1.52
2022-11-10T15:41:56.982Z,1.75
2022-11-10T15:45:00.863Z,1.90
2022-11-10T15:48:10.833Z,1.60
2022-11-10T15:51:21.488Z,1.40
2022-11-10T15:54:33.772Z,1.35
2022-11-10T15:57:37.775Z,1.50
2022-11-10T16:00:42.271Z,1.77
2022-11-10T16:03:46.980Z,1.40
2022-11-10T16:06:51.209Z,1.10
2022-11-10T16:09:55.503Z,1.10
2022-11-10T16:13:00.777Z,1.20
2022-11-10T16:16:05.159Z,1.73
2022-11-10T16:19:10.928Z,1.63
2022-11-10T16:22:15.110Z,1.60
2022-11-10T16:25:25.214Z,1.45
2022-11-10T16:28:31.870Z,1.38
2022-11-10T16:31:38.237Z,1.52
2022-11-10T16:34:42.342Z,1.80
2022-11-10T16:37:47.250Z,1.40
2022-11-10T16:41:00.143Z,1.40
2022-11-10T16:44:05.827Z,1.58
2022-11-10T16:47:18.240Z,1.40
2022-11-10T16:53:38.965Z,1.67
2022-11-10T16:56:43.697Z,1.63
2022-11-10T16:59:48.166Z,1.80
2022-11-10T17:03:04.774Z,1.60
2022-11-10T17:06:14.407Z,1.33
2022-11-10T17:09:23.493Z,1.70
2022-11-10T17:12:27.532Z,1.50
2022-11-10T17:15:32.435Z,2.05
2022-11-10T17:18:36.786Z,1.70
2022-11-10T17:21:41.267Z,1.70
2022-11-10T17:24:51.759Z,1.85
2022-11-10T17:27:56.262Z,2.55
2022-11-10T17:31:00.683Z,1.90
2022-11-10T17:34:05.278Z,1.60
2022-11-10T17:37:13.765Z,1.85
2022-11-10T17:40:21.301Z,2.05
2022-11-10T17:43:25.841Z,1.30
2022-11-10T17:46:30.316Z,1.85
2022-11-10T17:49:34.488Z,1.40
2022-11-10T17:52:39.610Z,1.45
2022-11-10T17:55:43.847Z,1.45
2022-11-10T17:58:48.474Z,1.65
2022-11-10T18:01:52.493Z,1.60
2022-11-10T18:04:56.756Z,2.05
2022-11-10T18:08:01.493Z,1.60
2022-11-10T18:11:05.518Z,2.08
2022-11-10T18:14:11.082Z,1.63
2022-11-10T18:17:15.040Z,1.50
2022-11-10T18:20:19.384Z,1.50
2022-11-10T18:23:24.402Z,1.35
2022-11-10T18:26:28.975Z,1.85
2022-11-10T18:29:33.433Z,1.60
2022-11-10T18:32:37.771Z,1.90
2022-11-10T18:35:42.121Z,2.10
2022-11-10T18:38:46.872Z,1.80
2022-11-10T18:41:52.261Z,1.80
2022-11-10T18:44:56.423Z,2.08
2022-11-10T18:48:03.191Z,1.65
2022-11-10T18:51:07.397Z,1.83
2022-11-10T18:54:12.891Z,1.90
2022-11-10T18:57:17.352Z,2.00
2022-11-10T19:00:22.073Z,1.67
2022-11-10T19:03:26.428Z,2.00
2022-11-10T19:06:30.950Z,2.00
2022-11-10T19:09:35.193Z,1.90
2022-11-10T19:12:39.882Z,1.80
2022-11-10T19:15:44.170Z,2.10
2022-11-10T19:18:48.462Z,1.90
2022-11-10T19:21:52.840Z,1.80
2022-11-10T19:25:12.060Z,1.95
2022-11-10T19:28:16.049Z,1.92
2022-11-10T19:31:22.819Z,2.10
2022-11-10T19:34:26.976Z,1.80
2022-11-10T19:37:34.930Z,1.88
2022-11-10T19:40:39.778Z,1.92
2022-11-10T19:43:47.503Z,2.40
2022-11-10T19:46:51.763Z,2.20
2022-11-10T19:49:56.069Z,2.17
2022-11-10T19:53:00.371Z,2.00
2022-11-10T19:56:17.065Z,1.70
2022-11-10T19:59:21.918Z,1.88
2022-11-10T20:02:26.345Z,1.92
2022-11-10T20:05:30.744Z,1.80
2022-11-10T20:08:35.364Z,2.55
2022-11-10T20:11:39.296Z,2.00
2022-11-10T20:14:43.544Z,2.20
2022-11-10T20:17:47.644Z,2.05
2022-11-10T20:20:51.926Z,2.40
2022-11-10T20:23:56.860Z,2.03
2022-11-10T20:27:01.217Z,2.33
2022-11-10T20:30:05.963Z,2.40
2022-11-10T20:33:10.731Z,2.10
2022-11-10T20:36:21.017Z,2.05
2022-11-10T20:39:25.020Z,2.58
2022-11-10T20:42:29.428Z,2.20
2022-11-10T20:45:34.091Z,2.60
2022-11-10T20:48:38.465Z,2.60
2022-11-10T20:51:42.552Z,2.92
2022-11-10T20:54:46.717Z,2.60
2022-11-10T20:57:51.882Z,2.78
2022-11-10T21:01:04.931Z,2.67
2022-11-10T21:04:10.783Z,2.70
2022-11-10T21:07:15.457Z,2.45
2022-11-10T21:10:20.196Z,2.40
2022-11-10T21:13:26.028Z,2.67
2022-11-10T21:16:30.528Z,2.70
2022-11-10T21:19:35.512Z,2.53
2022-11-10T21:22:39.902Z,2.50
2022-11-10T21:25:44.069Z,2.80
2022-11-10T21:28:48.513Z,2.38
2022-11-10T21:31:52.562Z,2.70
2022-11-10T21:34:56.895Z,2.75
2022-11-10T21:38:00.910Z,2.70
2022-11-10T21:41:05.594Z,2.67
2022-11-10T21:44:09.662Z,2.90
2022-11-10T21:47:14.328Z,2.53
2022-11-10T21:50:18.619Z,2.70
2022-11-10T21:53:23.209Z,2.72
2022-11-10T21:56:27.784Z,2.85
2022-11-10T21:59:32.151Z,2.85
2022-11-10T22:02:36.683Z,2.70
2022-11-10T22:05:40.759Z,3.13
2022-11-10T22:08:47.396Z,2.90
2022-11-10T22:12:10.299Z,2.50
2022-11-10T22:15:33.481Z,3.05
2022-11-10T22:18:37.756Z,2.92
2022-11-10T22:21:42.357Z,3.05
2022-11-10T22:24:46.547Z,2.75
2022-11-10T22:27:50.814Z,3.60
2022-11-10T22:30:54.885Z,3.25
2022-11-10T22:33:59.129Z,2.70
2022-11-10T22:37:03.332Z,3.22
2022-11-10T22:40:27.692Z,3.10
2022-11-10T22:43:50.767Z,3.70
2022-11-10T22:46:55.028Z,3.30
2022-11-10T22:49:59.422Z,3.30
2022-11-10T22:53:03.541Z,3.00
2022-11-10T22:56:08.058Z,3.50
2022-11-10T22:59:13.036Z,3.97
2022-11-10T23:02:17.092Z,3.60
2022-11-10T23:05:21.517Z,3.42
2022-11-10T23:08:26.307Z,4.00
2022-11-10T23:11:31.848Z,3.72
2022-11-10T23:14:35.911Z,4.00
2022-11-10T23:17:40.376Z,4.00
2022-11-10T23:20:44.786Z,4.70
2022-11-10T23:23:50.380Z,4.40
2022-11-10T23:26:54.175Z,4.40
2022-11-10T23:29:58.299Z,4.53
2022-11-10T23:33:02.668Z,4.63
2022-11-10T23:36:07.891Z,4.53
2022-11-10T23:39:13.689Z,3.92
2022-11-10T23:42:17.399Z,4.10
2022-11-10T23:45:21.743Z,4.53
2022-11-10T23:48:26.466Z,5.07
2022-11-10T23:51:30.615Z,5.30
2022-11-10T23:54:34.927Z,4.40
2022-11-10T23:57:39.295Z,3.90
